Crook, Colorado
Current Conditions -  °F | °C
As of 1:53 AM on Thursday 23 Oct 2014 (Local Time) from KSNY Reporting Station
Clear Clear  
Wind Chill: 33°   Ceiling: Unl
Heat Index: 39°   Visibility: 10mi
Dew Point: 33°   Wind: 9mph
Humidity: 79%   Direction: 300°WNW
Pressure: 30.12"   Gusts: NA
Location:  40.86°N, 102.8°W
Report Text: KSNY 230753Z AUTO 30008KT 10SM CLR 04/01 A3012 RMK AO2 SLP181 T00390006
Loading
Personal Weather Stations






























Interactive Weather Map
Tropical Storm Tracking
New forecast layout! Learn more

10-Day Weather Forecast

Advertisements
Track Severe Weather on mobile